sensor_id;sensor_type;location;lat;lon;timestamp;P1;durP1;ratioP1;P2;durP2;ratioP2
3853;SDS011;1942;48.770;8.934;2022-07-10T00:00:24;3.47;;;3.17;;
3853;SDS011;1942;48.770;8.934;2022-07-10T00:02:51;3.70;;;3.30;;
3853;SDS011;1942;48.770;8.934;2022-07-10T00:05:18;3.50;;;3.20;;
3853;SDS011;1942;48.770;8.934;2022-07-10T00:07:46;4.10;;;3.67;;
3853;SDS011;1942;48.770;8.934;2022-07-10T00:10:15;3.57;;;3.20;;
3853;SDS011;1942;48.770;8.934;2022-07-10T00:12:42;4.03;;;3.60;;
3853;SDS011;1942;48.770;8.934;2022-07-10T00:15:09;4.67;;;3.40;;
3853;SDS011;1942;48.770;8.934;2022-07-10T00:17:37;3.83;;;3.53;;
3853;SDS011;1942;48.770;8.934;2022-07-10T00:20:04;3.80;;;3.40;;
3853;SDS011;1942;48.770;8.934;2022-07-10T00:22:33;3.87;;;3.57;;
3853;SDS011;1942;48.770;8.934;2022-07-10T00:25:00;4.23;;;3.80;;
3853;SDS011;1942;48.770;8.934;2022-07-10T00:27:28;3.77;;;3.37;;
3853;SDS011;1942;48.770;8.934;2022-07-10T00:29:55;3.70;;;3.40;;
3853;SDS011;1942;48.770;8.934;2022-07-10T00:32:22;3.60;;;3.30;;
3853;SDS011;1942;48.770;8.934;2022-07-10T00:34:49;3.57;;;3.27;;
3853;SDS011;1942;48.770;8.934;2022-07-10T00:37:16;4.07;;;3.67;;
3853;SDS011;1942;48.770;8.934;2022-07-10T00:39:43;4.60;;;3.90;;
3853;SDS011;1942;48.770;8.934;2022-07-10T00:42:11;4.10;;;3.80;;
3853;SDS011;1942;48.770;8.934;2022-07-10T00:44:41;4.00;;;3.60;;
3853;SDS011;1942;48.770;8.934;2022-07-10T00:47:09;4.47;;;4.07;;
3853;SDS011;1942;48.770;8.934;2022-07-10T00:49:36;5.10;;;3.57;;
3853;SDS011;1942;48.770;8.934;2022-07-10T00:52:05;4.50;;;4.10;;
3853;SDS011;1942;48.770;8.934;2022-07-10T00:54:33;4.53;;;3.93;;
3853;SDS011;1942;48.770;8.934;2022-07-10T00:57:01;4.47;;;4.07;;
3853;SDS011;1942;48.770;8.934;2022-07-10T00:59:30;4.00;;;3.60;;
3853;SDS011;1942;48.770;8.934;2022-07-10T01:01:59;4.30;;;3.90;;
3853;SDS011;1942;48.770;8.934;2022-07-10T01:04:27;5.60;;;4.30;;
3853;SDS011;1942;48.770;8.934;2022-07-10T01:06:53;4.77;;;4.00;;
3853;SDS011;1942;48.770;8.934;2022-07-10T01:09:20;4.83;;;3.90;;
3853;SDS011;1942;48.770;8.934;2022-07-10T01:11:47;4.63;;;3.80;;
3853;SDS011;1942;48.770;8.934;2022-07-10T01:14:15;4.07;;;3.70;;
3853;SDS011;1942;48.770;8.934;2022-07-10T01:16:42;4.23;;;3.83;;
3853;SDS011;1942;48.770;8.934;2022-07-10T01:19:10;4.50;;;4.10;;
3853;SDS011;1942;48.770;8.934;2022-07-10T01:21:38;5.33;;;4.30;;
3853;SDS011;1942;48.770;8.934;2022-07-10T01:24:06;4.93;;;4.00;;
3853;SDS011;1942;48.770;8.934;2022-07-10T01:26:33;4.77;;;4.27;;
3853;SDS011;1942;48.770;8.934;2022-07-10T01:29:02;5.30;;;4.80;;
3853;SDS011;1942;48.770;8.934;2022-07-10T01:31:30;4.60;;;4.20;;
3853;SDS011;1942;48.770;8.934;2022-07-10T01:33:56;4.30;;;3.90;;
3853;SDS011;1942;48.770;8.934;2022-07-10T01:36:25;4.60;;;4.20;;
3853;SDS011;1942;48.770;8.934;2022-07-10T01:38:56;4.23;;;3.83;;
3853;SDS011;1942;48.770;8.934;2022-07-10T01:41:24;4.60;;;4.20;;
3853;SDS011;1942;48.770;8.934;2022-07-10T01:43:51;5.80;;;4.90;;
3853;SDS011;1942;48.770;8.934;2022-07-10T01:46:19;5.93;;;4.73;;
3853;SDS011;1942;48.770;8.934;2022-07-10T01:48:46;5.37;;;4.87;;
3853;SDS011;1942;48.770;8.934;2022-07-10T01:51:12;4.80;;;4.30;;
3853;SDS011;1942;48.770;8.934;2022-07-10T01:53:39;6.07;;;4.80;;
3853;SDS011;1942;48.770;8.934;2022-07-10T01:56:09;5.40;;;4.83;;
3853;SDS011;1942;48.770;8.934;2022-07-10T01:58:37;6.27;;;5.23;;
3853;SDS011;1942;48.770;8.934;2022-07-10T02:01:04;5.73;;;5.23;;
3853;SDS011;1942;48.770;8.934;2022-07-10T02:03:32;5.17;;;4.57;;
3853;SDS011;1942;48.770;8.934;2022-07-10T02:06:16;5.80;;;5.30;;
3853;SDS011;1942;48.770;8.934;2022-07-10T02:08:43;5.93;;;4.77;;
3853;SDS011;1942;48.770;8.934;2022-07-10T02:11:11;5.60;;;5.10;;
3853;SDS011;1942;48.770;8.934;2022-07-10T02:13:38;6.10;;;5.50;;
3853;SDS011;1942;48.770;8.934;2022-07-10T02:16:05;6.33;;;5.73;;
3853;SDS011;1942;48.770;8.934;2022-07-10T02:18:32;6.80;;;6.17;;
3853;SDS011;1942;48.770;8.934;2022-07-10T02:20:59;7.77;;;6.30;;
3853;SDS011;1942;48.770;8.934;2022-07-10T02:23:27;8.00;;;7.27;;
3853;SDS011;1942;48.770;8.934;2022-07-10T02:25:54;9.13;;;7.57;;
3853;SDS011;1942;48.770;8.934;2022-07-10T02:28:22;10.13;;;8.27;;
3853;SDS011;1942;48.770;8.934;2022-07-10T02:30:49;10.20;;;9.17;;
3853;SDS011;1942;48.770;8.934;2022-07-10T02:33:16;9.63;;;8.73;;
3853;SDS011;1942;48.770;8.934;2022-07-10T02:35:43;10.47;;;8.17;;
3853;SDS011;1942;48.770;8.934;2022-07-10T02:38:09;10.07;;;8.73;;
3853;SDS011;1942;48.770;8.934;2022-07-10T02:40:36;10.03;;;8.37;;
3853;SDS011;1942;48.770;8.934;2022-07-10T02:43:03;9.70;;;8.70;;
3853;SDS011;1942;48.770;8.934;2022-07-10T02:45:31;10.17;;;9.07;;
3853;SDS011;1942;48.770;8.934;2022-07-10T02:47:58;9.80;;;8.80;;
3853;SDS011;1942;48.770;8.934;2022-07-10T02:50:24;9.77;;;8.63;;
3853;SDS011;1942;48.770;8.934;2022-07-10T02:52:51;9.33;;;8.43;;
3853;SDS011;1942;48.770;8.934;2022-07-10T02:55:18;9.20;;;8.30;;
3853;SDS011;1942;48.770;8.934;2022-07-10T02:57:44;10.33;;;9.27;;
3853;SDS011;1942;48.770;8.934;2022-07-10T03:00:11;9.60;;;8.57;;
3853;SDS011;1942;48.770;8.934;2022-07-10T03:02:40;9.87;;;8.87;;
3853;SDS011;1942;48.770;8.934;2022-07-10T03:05:07;10.67;;;9.63;;
3853;SDS011;1942;48.770;8.934;2022-07-10T03:07:34;10.20;;;9.20;;
3853;SDS011;1942;48.770;8.934;2022-07-10T03:10:01;9.97;;;8.97;;
3853;SDS011;1942;48.770;8.934;2022-07-10T03:12:28;9.97;;;8.97;;
3853;SDS011;1942;48.770;8.934;2022-07-10T03:14:54;10.77;;;9.67;;
3853;SDS011;1942;48.770;8.934;2022-07-10T03:17:21;12.13;;;10.07;;
3853;SDS011;1942;48.770;8.934;2022-07-10T03:19:49;11.07;;;9.70;;
3853;SDS011;1942;48.770;8.934;2022-07-10T03:22:16;9.93;;;8.93;;
3853;SDS011;1942;48.770;8.934;2022-07-10T03:24:43;11.40;;;10.20;;
3853;SDS011;1942;48.770;8.934;2022-07-10T03:27:11;12.00;;;10.53;;
3853;SDS011;1942;48.770;8.934;2022-07-10T03:29:38;10.73;;;9.63;;
3853;SDS011;1942;48.770;8.934;2022-07-10T03:32:05;12.10;;;9.70;;
3853;SDS011;1942;48.770;8.934;2022-07-10T03:34:33;11.20;;;9.37;;
3853;SDS011;1942;48.770;8.934;2022-07-10T03:37:01;10.83;;;9.73;;
3853;SDS011;1942;48.770;8.934;2022-07-10T03:39:28;10.63;;;9.20;;
3853;SDS011;1942;48.770;8.934;2022-07-10T03:41:55;11.33;;;9.27;;
3853;SDS011;1942;48.770;8.934;2022-07-10T03:44:22;10.30;;;9.23;;
3853;SDS011;1942;48.770;8.934;2022-07-10T03:46:49;10.17;;;8.60;;
3853;SDS011;1942;48.770;8.934;2022-07-10T03:49:15;10.20;;;9.07;;
3853;SDS011;1942;48.770;8.934;2022-07-10T03:51:42;10.07;;;8.27;;
3853;SDS011;1942;48.770;8.934;2022-07-10T03:54:10;9.60;;;8.20;;
3853;SDS011;1942;48.770;8.934;2022-07-10T03:56:37;8.77;;;7.87;;
3853;SDS011;1942;48.770;8.934;2022-07-10T03:59:21;10.47;;;8.70;;
3853;SDS011;1942;48.770;8.934;2022-07-10T04:01:48;8.73;;;7.83;;
3853;SDS011;1942;48.770;8.934;2022-07-10T04:04:15;8.73;;;7.83;;
3853;SDS011;1942;48.770;8.934;2022-07-10T04:06:41;8.10;;;7.23;;
3853;SDS011;1942;48.770;8.934;2022-07-10T04:09:08;9.37;;;7.57;;
3853;SDS011;1942;48.770;8.934;2022-07-10T04:11:36;10.40;;;7.77;;
3853;SDS011;1942;48.770;8.934;2022-07-10T04:14:03;8.20;;;7.40;;
3853;SDS011;1942;48.770;8.934;2022-07-10T04:16:30;9.03;;;6.77;;
3853;SDS011;1942;48.770;8.934;2022-07-10T04:18:56;11.60;;;6.93;;
3853;SDS011;1942;48.770;8.934;2022-07-10T04:21:23;7.10;;;6.00;;
3853;SDS011;1942;48.770;8.934;2022-07-10T04:23:50;8.37;;;6.47;;
3853;SDS011;1942;48.770;8.934;2022-07-10T04:26:18;6.27;;;5.63;;
3853;SDS011;1942;48.770;8.934;2022-07-10T04:28:45;6.33;;;5.47;;
3853;SDS011;1942;48.770;8.934;2022-07-10T04:31:11;6.33;;;5.37;;
3853;SDS011;1942;48.770;8.934;2022-07-10T04:33:38;8.20;;;5.10;;
3853;SDS011;1942;48.770;8.934;2022-07-10T04:36:05;5.63;;;4.80;;
3853;SDS011;1942;48.770;8.934;2022-07-10T04:38:32;8.07;;;5.50;;
3853;SDS011;1942;48.770;8.934;2022-07-10T04:40:59;7.80;;;5.90;;
3853;SDS011;1942;48.770;8.934;2022-07-10T04:43:27;10.70;;;7.33;;
3853;SDS011;1942;48.770;8.934;2022-07-10T04:45:55;8.47;;;4.80;;
3853;SDS011;1942;48.770;8.934;2022-07-10T04:48:22;4.93;;;4.43;;
3853;SDS011;1942;48.770;8.934;2022-07-10T04:50:49;7.03;;;5.03;;
3853;SDS011;1942;48.770;8.934;2022-07-10T04:53:16;5.20;;;4.40;;
3853;SDS011;1942;48.770;8.934;2022-07-10T04:55:42;5.17;;;4.67;;
3853;SDS011;1942;48.770;8.934;2022-07-10T04:58:09;5.07;;;4.47;;
3853;SDS011;1942;48.770;8.934;2022-07-10T05:00:37;5.57;;;4.60;;
3853;SDS011;1942;48.770;8.934;2022-07-10T05:03:04;5.60;;;4.03;;
3853;SDS011;1942;48.770;8.934;2022-07-10T05:05:31;6.50;;;4.20;;
3853;SDS011;1942;48.770;8.934;2022-07-10T05:07:57;6.73;;;3.87;;
3853;SDS011;1942;48.770;8.934;2022-07-10T05:10:24;5.43;;;3.77;;
3853;SDS011;1942;48.770;8.934;2022-07-10T05:12:52;4.97;;;3.80;;
3853;SDS011;1942;48.770;8.934;2022-07-10T05:15:18;5.27;;;3.83;;
3853;SDS011;1942;48.770;8.934;2022-07-10T05:17:47;7.03;;;4.10;;
3853;SDS011;1942;48.770;8.934;2022-07-10T05:20:13;6.03;;;4.13;;
3853;SDS011;1942;48.770;8.934;2022-07-10T05:22:40;3.83;;;3.47;;
3853;SDS011;1942;48.770;8.934;2022-07-10T05:25:07;3.73;;;3.10;;
3853;SDS011;1942;48.770;8.934;2022-07-10T05:27:34;3.63;;;3.33;;
3853;SDS011;1942;48.770;8.934;2022-07-10T05:30:00;3.80;;;3.43;;
3853;SDS011;1942;48.770;8.934;2022-07-10T05:32:27;7.40;;;3.40;;
3853;SDS011;1942;48.770;8.934;2022-07-10T05:34:56;4.90;;;3.40;;
3853;SDS011;1942;48.770;8.934;2022-07-10T05:37:23;5.57;;;2.90;;
3853;SDS011;1942;48.770;8.934;2022-07-10T05:39:50;4.17;;;2.73;;
3853;SDS011;1942;48.770;8.934;2022-07-10T05:42:17;3.53;;;2.60;;
3853;SDS011;1942;48.770;8.934;2022-07-10T05:44:43;3.97;;;3.00;;
3853;SDS011;1942;48.770;8.934;2022-07-10T05:47:10;5.43;;;2.77;;
3853;SDS011;1942;48.770;8.934;2022-07-10T05:49:37;3.73;;;2.80;;
3853;SDS011;1942;48.770;8.934;2022-07-10T05:52:06;3.47;;;2.50;;
3853;SDS011;1942;48.770;8.934;2022-07-10T05:54:33;2.93;;;2.30;;
3853;SDS011;1942;48.770;8.934;2022-07-10T05:56:59;3.80;;;2.20;;
3853;SDS011;1942;48.770;8.934;2022-07-10T05:59:26;5.13;;;2.47;;
3853;SDS011;1942;48.770;8.934;2022-07-10T06:01:53;3.50;;;2.33;;
3853;SDS011;1942;48.770;8.934;2022-07-10T06:04:19;2.47;;;2.23;;
3853;SDS011;1942;48.770;8.934;2022-07-10T06:06:46;4.13;;;2.23;;
3853;SDS011;1942;48.770;8.934;2022-07-10T06:09:14;3.53;;;2.10;;
3853;SDS011;1942;48.770;8.934;2022-07-10T06:11:41;6.27;;;2.70;;
3853;SDS011;1942;48.770;8.934;2022-07-10T06:14:09;3.70;;;2.50;;
3853;SDS011;1942;48.770;8.934;2022-07-10T06:16:36;5.10;;;2.37;;
3853;SDS011;1942;48.770;8.934;2022-07-10T06:19:02;3.57;;;2.20;;
3853;SDS011;1942;48.770;8.934;2022-07-10T06:21:29;3.93;;;2.20;;
3853;SDS011;1942;48.770;8.934;2022-07-10T06:23:56;5.60;;;2.17;;
3853;SDS011;1942;48.770;8.934;2022-07-10T06:26:25;6.73;;;2.13;;
3853;SDS011;1942;48.770;8.934;2022-07-10T06:28:51;3.70;;;2.20;;
3853;SDS011;1942;48.770;8.934;2022-07-10T06:31:18;4.37;;;2.30;;
3853;SDS011;1942;48.770;8.934;2022-07-10T06:33:45;3.77;;;1.77;;
3853;SDS011;1942;48.770;8.934;2022-07-10T06:36:12;3.90;;;2.30;;
3853;SDS011;1942;48.770;8.934;2022-07-10T06:38:41;2.63;;;2.13;;
3853;SDS011;1942;48.770;8.934;2022-07-10T06:41:07;4.13;;;1.83;;
3853;SDS011;1942;48.770;8.934;2022-07-10T06:43:35;4.87;;;1.93;;
3853;SDS011;1942;48.770;8.934;2022-07-10T06:46:02;3.10;;;1.80;;
3853;SDS011;1942;48.770;8.934;2022-07-10T06:48:29;4.50;;;1.70;;
3853;SDS011;1942;48.770;8.934;2022-07-10T06:50:55;4.80;;;2.03;;
3853;SDS011;1942;48.770;8.934;2022-07-10T06:53:22;5.17;;;1.60;;
3853;SDS011;1942;48.770;8.934;2022-07-10T06:55:52;2.97;;;1.43;;
3853;SDS011;1942;48.770;8.934;2022-07-10T06:58:19;2.50;;;1.53;;
3853;SDS011;1942;48.770;8.934;2022-07-10T07:00:47;4.67;;;1.27;;
3853;SDS011;1942;48.770;8.934;2022-07-10T07:03:14;2.33;;;1.60;;
3853;SDS011;1942;48.770;8.934;2022-07-10T07:05:40;3.23;;;1.67;;
3853;SDS011;1942;48.770;8.934;2022-07-10T07:08:07;2.60;;;1.50;;
3853;SDS011;1942;48.770;8.934;2022-07-10T07:10:34;3.83;;;1.43;;
3853;SDS011;1942;48.770;8.934;2022-07-10T07:13:03;2.73;;;1.67;;
3853;SDS011;1942;48.770;8.934;2022-07-10T07:15:30;4.70;;;1.50;;
3853;SDS011;1942;48.770;8.934;2022-07-10T07:18:02;2.90;;;1.43;;
3853;SDS011;1942;48.770;8.934;2022-07-10T07:20:37;4.50;;;1.50;;
3853;SDS011;1942;48.770;8.934;2022-07-10T07:23:22;2.80;;;1.57;;
3853;SDS011;1942;48.770;8.934;2022-07-10T07:25:49;2.80;;;1.50;;
3853;SDS011;1942;48.770;8.934;2022-07-10T07:28:16;2.90;;;1.57;;
3853;SDS011;1942;48.770;8.934;2022-07-10T07:30:43;4.13;;;1.50;;
3853;SDS011;1942;48.770;8.934;2022-07-10T07:33:12;3.57;;;1.53;;
3853;SDS011;1942;48.770;8.934;2022-07-10T07:35:39;3.07;;;1.50;;
3853;SDS011;1942;48.770;8.934;2022-07-10T07:38:06;2.20;;;1.40;;
3853;SDS011;1942;48.770;8.934;2022-07-10T07:40:33;2.80;;;1.30;;
3853;SDS011;1942;48.770;8.934;2022-07-10T07:43:04;2.73;;;1.23;;
3853;SDS011;1942;48.770;8.934;2022-07-10T07:45:31;3.73;;;1.40;;
3853;SDS011;1942;48.770;8.934;2022-07-10T07:47:58;3.60;;;1.50;;
3853;SDS011;1942;48.770;8.934;2022-07-10T07:50:29;1.67;;;1.23;;
3853;SDS011;1942;48.770;8.934;2022-07-10T07:52:58;3.03;;;1.60;;
3853;SDS011;1942;48.770;8.934;2022-07-10T07:55:37;4.00;;;1.67;;
3853;SDS011;1942;48.770;8.934;2022-07-10T07:58:09;2.47;;;1.40;;
3853;SDS011;1942;48.770;8.934;2022-07-10T08:00:41;3.83;;;1.33;;
3853;SDS011;1942;48.770;8.934;2022-07-10T08:03:10;2.33;;;1.30;;
3853;SDS011;1942;48.770;8.934;2022-07-10T08:05:42;1.80;;;1.30;;
3853;SDS011;1942;48.770;8.934;2022-07-10T08:08:11;3.63;;;1.33;;
3853;SDS011;1942;48.770;8.934;2022-07-10T08:10:39;5.83;;;1.53;;
3853;SDS011;1942;48.770;8.934;2022-07-10T08:13:07;2.60;;;1.30;;
3853;SDS011;1942;48.770;8.934;2022-07-10T08:15:37;4.23;;;1.60;;
3853;SDS011;1942;48.770;8.934;2022-07-10T08:18:07;1.60;;;1.30;;
3853;SDS011;1942;48.770;8.934;2022-07-10T08:20:34;3.70;;;1.47;;
3853;SDS011;1942;48.770;8.934;2022-07-10T08:23:02;4.67;;;1.80;;
3853;SDS011;1942;48.770;8.934;2022-07-10T08:25:29;1.70;;;1.30;;
3853;SDS011;1942;48.770;8.934;2022-07-10T08:28:07;4.03;;;1.63;;
3853;SDS011;1942;48.770;8.934;2022-07-10T08:30:35;4.17;;;2.27;;
3853;SDS011;1942;48.770;8.934;2022-07-10T08:33:03;4.03;;;1.53;;
3853;SDS011;1942;48.770;8.934;2022-07-10T08:35:31;3.17;;;1.23;;
3853;SDS011;1942;48.770;8.934;2022-07-10T08:37:58;2.40;;;1.50;;
3853;SDS011;1942;48.770;8.934;2022-07-10T08:40:33;2.17;;;1.43;;
3853;SDS011;1942;48.770;8.934;2022-07-10T08:43:06;1.77;;;1.20;;
3853;SDS011;1942;48.770;8.934;2022-07-10T08:45:35;2.67;;;1.40;;
3853;SDS011;1942;48.770;8.934;2022-07-10T08:48:04;2.13;;;1.30;;
3853;SDS011;1942;48.770;8.934;2022-07-10T08:50:37;4.00;;;1.73;;
3853;SDS011;1942;48.770;8.934;2022-07-10T08:53:08;2.90;;;1.90;;
3853;SDS011;1942;48.770;8.934;2022-07-10T08:55:40;3.00;;;1.60;;
3853;SDS011;1942;48.770;8.934;2022-07-10T08:58:12;4.23;;;1.83;;
3853;SDS011;1942;48.770;8.934;2022-07-10T09:00:39;7.87;;;3.33;;
3853;SDS011;1942;48.770;8.934;2022-07-10T09:03:08;3.93;;;2.00;;
3853;SDS011;1942;48.770;8.934;2022-07-10T09:05:36;4.83;;;2.90;;
3853;SDS011;1942;48.770;8.934;2022-07-10T09:08:03;3.60;;;2.17;;
3853;SDS011;1942;48.770;8.934;2022-07-10T09:10:46;4.77;;;1.63;;
3853;SDS011;1942;48.770;8.934;2022-07-10T09:13:13;3.60;;;2.37;;
3853;SDS011;1942;48.770;8.934;2022-07-10T09:15:47;5.00;;;2.70;;
3853;SDS011;1942;48.770;8.934;2022-07-10T09:18:18;6.43;;;2.47;;
3853;SDS011;1942;48.770;8.934;2022-07-10T09:20:50;2.77;;;1.70;;
3853;SDS011;1942;48.770;8.934;2022-07-10T09:23:18;5.03;;;2.00;;
3853;SDS011;1942;48.770;8.934;2022-07-10T09:25:47;2.43;;;1.90;;
3853;SDS011;1942;48.770;8.934;2022-07-10T09:28:16;5.40;;;2.23;;
3853;SDS011;1942;48.770;8.934;2022-07-10T09:30:44;3.13;;;1.70;;
3853;SDS011;1942;48.770;8.934;2022-07-10T09:33:22;4.17;;;2.07;;
3853;SDS011;1942;48.770;8.934;2022-07-10T09:35:55;4.43;;;2.10;;
3853;SDS011;1942;48.770;8.934;2022-07-10T09:38:51;4.73;;;2.30;;
3853;SDS011;1942;48.770;8.934;2022-07-10T09:41:28;3.53;;;1.87;;
3853;SDS011;1942;48.770;8.934;2022-07-10T09:43:56;4.27;;;2.40;;
3853;SDS011;1942;48.770;8.934;2022-07-10T09:46:30;2.20;;;1.90;;
3853;SDS011;1942;48.770;8.934;2022-07-10T09:49:08;4.27;;;2.40;;
3853;SDS011;1942;48.770;8.934;2022-07-10T09:51:42;4.00;;;1.70;;
3853;SDS011;1942;48.770;8.934;2022-07-10T09:54:10;3.10;;;1.67;;
3853;SDS011;1942;48.770;8.934;2022-07-10T09:56:48;3.30;;;2.20;;
3853;SDS011;1942;48.770;8.934;2022-07-10T09:59:17;5.37;;;2.57;;
3853;SDS011;1942;48.770;8.934;2022-07-10T10:01:45;3.97;;;2.00;;
3853;SDS011;1942;48.770;8.934;2022-07-10T10:04:14;3.37;;;1.53;;
3853;SDS011;1942;48.770;8.934;2022-07-10T10:06:42;3.20;;;2.10;;
3853;SDS011;1942;48.770;8.934;2022-07-10T10:09:12;3.20;;;1.87;;
3853;SDS011;1942;48.770;8.934;2022-07-10T10:11:49;4.20;;;2.10;;
3853;SDS011;1942;48.770;8.934;2022-07-10T10:14:18;2.50;;;1.70;;
3853;SDS011;1942;48.770;8.934;2022-07-10T10:16:47;2.90;;;1.87;;
3853;SDS011;1942;48.770;8.934;2022-07-10T10:19:14;3.93;;;2.17;;
3853;SDS011;1942;48.770;8.934;2022-07-10T10:21:59;2.90;;;1.87;;
3853;SDS011;1942;48.770;8.934;2022-07-10T10:24:27;3.30;;;2.60;;
3853;SDS011;1942;48.770;8.934;2022-07-10T10:26:59;3.27;;;2.30;;
3853;SDS011;1942;48.770;8.934;2022-07-10T10:29:27;4.77;;;3.47;;
3853;SDS011;1942;48.770;8.934;2022-07-10T10:31:54;4.53;;;1.77;;
3853;SDS011;1942;48.770;8.934;2022-07-10T10:34:37;4.30;;;1.70;;
3853;SDS011;1942;48.770;8.934;2022-07-10T10:40:03;3.60;;;1.70;;
3853;SDS011;1942;48.770;8.934;2022-07-10T10:42:33;2.93;;;1.70;;
3853;SDS011;1942;48.770;8.934;2022-07-10T10:47:58;4.20;;;2.33;;
3853;SDS011;1942;48.770;8.934;2022-07-10T10:50:36;2.07;;;1.50;;
3853;SDS011;1942;48.770;8.934;2022-07-10T10:53:04;5.53;;;2.60;;
3853;SDS011;1942;48.770;8.934;2022-07-10T10:55:31;3.30;;;1.40;;
3853;SDS011;1942;48.770;8.934;2022-07-10T10:58:13;3.60;;;1.20;;
3853;SDS011;1942;48.770;8.934;2022-07-10T11:00:43;5.50;;;1.90;;
3853;SDS011;1942;48.770;8.934;2022-07-10T11:03:11;3.33;;;1.83;;
3853;SDS011;1942;48.770;8.934;2022-07-10T11:05:39;5.57;;;1.50;;
3853;SDS011;1942;48.770;8.934;2022-07-10T11:08:08;4.37;;;1.43;;
3853;SDS011;1942;48.770;8.934;2022-07-10T11:10:35;5.53;;;1.50;;
3853;SDS011;1942;48.770;8.934;2022-07-10T11:13:04;3.20;;;1.60;;
3853;SDS011;1942;48.770;8.934;2022-07-10T11:15:33;2.13;;;1.40;;
3853;SDS011;1942;48.770;8.934;2022-07-10T11:18:08;2.10;;;1.20;;
3853;SDS011;1942;48.770;8.934;2022-07-10T11:20:37;2.40;;;1.30;;
3853;SDS011;1942;48.770;8.934;2022-07-10T11:23:08;1.80;;;0.90;;
3853;SDS011;1942;48.770;8.934;2022-07-10T11:25:45;3.07;;;1.10;;
3853;SDS011;1942;48.770;8.934;2022-07-10T11:28:26;1.87;;;1.37;;
3853;SDS011;1942;48.770;8.934;2022-07-10T11:31:00;1.67;;;1.10;;
3853;SDS011;1942;48.770;8.934;2022-07-10T11:33:26;3.13;;;1.30;;
3853;SDS011;1942;48.770;8.934;2022-07-10T11:35:53;1.67;;;1.23;;
3853;SDS011;1942;48.770;8.934;2022-07-10T11:38:21;2.90;;;1.50;;
3853;SDS011;1942;48.770;8.934;2022-07-10T11:40:48;3.83;;;1.00;;
3853;SDS011;1942;48.770;8.934;2022-07-10T11:43:17;2.03;;;1.03;;
3853;SDS011;1942;48.770;8.934;2022-07-10T11:45:47;2.97;;;1.02;;
3853;SDS011;1942;48.770;8.934;2022-07-10T11:48:19;1.53;;;1.00;;
3853;SDS011;1942;48.770;8.934;2022-07-10T11:50:48;1.38;;;1.00;;
3853;SDS011;1942;48.770;8.934;2022-07-10T11:53:21;4.15;;;1.13;;
3853;SDS011;1942;48.770;8.934;2022-07-10T11:55:50;2.08;;;1.20;;
3853;SDS011;1942;48.770;8.934;2022-07-10T11:58:17;1.92;;;0.93;;
3853;SDS011;1942;48.770;8.934;2022-07-10T12:00:56;2.25;;;1.08;;
3853;SDS011;1942;48.770;8.934;2022-07-10T12:03:26;2.10;;;1.05;;
3853;SDS011;1942;48.770;8.934;2022-07-10T12:05:53;2.50;;;0.98;;
3853;SDS011;1942;48.770;8.934;2022-07-10T12:08:20;2.28;;;1.00;;
3853;SDS011;1942;48.770;8.934;2022-07-10T12:10:46;2.33;;;1.00;;
3853;SDS011;1942;48.770;8.934;2022-07-10T12:13:13;2.65;;;1.17;;
3853;SDS011;1942;48.770;8.934;2022-07-10T12:15:41;2.38;;;0.90;;
3853;SDS011;1942;48.770;8.934;2022-07-10T12:18:15;2.60;;;1.00;;
3853;SDS011;1942;48.770;8.934;2022-07-10T12:20:44;1.05;;;0.80;;
3853;SDS011;1942;48.770;8.934;2022-07-10T12:23:12;2.40;;;1.13;;
3853;SDS011;1942;48.770;8.934;2022-07-10T12:25:41;3.17;;;1.20;;
3853;SDS011;1942;48.770;8.934;2022-07-10T12:28:08;1.40;;;0.80;;
3853;SDS011;1942;48.770;8.934;2022-07-10T12:30:50;3.00;;;1.10;;
3853;SDS011;1942;48.770;8.934;2022-07-10T12:33:41;1.73;;;0.90;;
3853;SDS011;1942;48.770;8.934;2022-07-10T12:36:45;1.35;;;0.75;;
3853;SDS011;1942;48.770;8.934;2022-07-10T12:39:16;0.90;;;0.73;;
3853;SDS011;1942;48.770;8.934;2022-07-10T12:41:56;1.38;;;0.80;;
3853;SDS011;1942;48.770;8.934;2022-07-10T12:44:34;4.72;;;0.90;;
3853;SDS011;1942;48.770;8.934;2022-07-10T12:47:42;2.20;;;0.90;;
3853;SDS011;1942;48.770;8.934;2022-07-10T12:53:21;1.95;;;0.90;;
3853;SDS011;1942;48.770;8.934;2022-07-10T12:56:01;5.63;;;1.10;;
3853;SDS011;1942;48.770;8.934;2022-07-10T12:59:13;1.10;;;0.80;;
3853;SDS011;1942;48.770;8.934;2022-07-10T13:04:52;1.20;;;0.68;;
3853;SDS011;1942;48.770;8.934;2022-07-10T13:07:47;1.13;;;0.60;;
3853;SDS011;1942;48.770;8.934;2022-07-10T13:10:31;2.78;;;0.68;;
3853;SDS011;1942;48.770;8.934;2022-07-10T13:13:22;1.50;;;0.75;;
3853;SDS011;1942;48.770;8.934;2022-07-10T13:16:23;2.72;;;0.70;;
3853;SDS011;1942;48.770;8.934;2022-07-10T13:19:20;1.40;;;0.77;;
3853;SDS011;1942;48.770;8.934;2022-07-10T13:22:09;2.28;;;0.52;;
3853;SDS011;1942;48.770;8.934;2022-07-10T13:24:35;2.80;;;0.70;;
3853;SDS011;1942;48.770;8.934;2022-07-10T13:27:08;2.22;;;0.88;;
3853;SDS011;1942;48.770;8.934;2022-07-10T13:30:03;2.22;;;0.70;;
3853;SDS011;1942;48.770;8.934;2022-07-10T13:32:40;4.15;;;0.85;;
3853;SDS011;1942;48.770;8.934;2022-07-10T13:35:36;1.85;;;0.80;;
3853;SDS011;1942;48.770;8.934;2022-07-10T13:38:44;2.45;;;0.90;;
3853;SDS011;1942;48.770;8.934;2022-07-10T13:41:43;1.48;;;1.05;;
3853;SDS011;1942;48.770;8.934;2022-07-10T13:44:52;1.33;;;0.63;;
3853;SDS011;1942;48.770;8.934;2022-07-10T13:47:26;1.75;;;0.80;;
3853;SDS011;1942;48.770;8.934;2022-07-10T13:50:12;4.25;;;1.95;;
3853;SDS011;1942;48.770;8.934;2022-07-10T13:53:02;1.15;;;0.60;;
3853;SDS011;1942;48.770;8.934;2022-07-10T13:55:59;1.38;;;0.70;;
3853;SDS011;1942;48.770;8.934;2022-07-10T13:59:05;1.23;;;0.80;;
3853;SDS011;1942;48.770;8.934;2022-07-10T14:01:43;1.60;;;0.80;;
3853;SDS011;1942;48.770;8.934;2022-07-10T14:04:55;1.83;;;0.70;;
3853;SDS011;1942;48.770;8.934;2022-07-10T14:07:59;2.05;;;0.70;;
3853;SDS011;1942;48.770;8.934;2022-07-10T14:10:35;2.25;;;0.98;;
3853;SDS011;1942;48.770;8.934;2022-07-10T14:13:26;1.33;;;0.70;;
3853;SDS011;1942;48.770;8.934;2022-07-10T14:16:09;2.13;;;0.90;;
3853;SDS011;1942;48.770;8.934;2022-07-10T14:18:56;0.80;;;0.60;;
3853;SDS011;1942;48.770;8.934;2022-07-10T14:21:58;2.15;;;1.10;;
3853;SDS011;1942;48.770;8.934;2022-07-10T14:24:32;2.55;;;0.77;;
3853;SDS011;1942;48.770;8.934;2022-07-10T14:27:07;1.40;;;0.75;;
3853;SDS011;1942;48.770;8.934;2022-07-10T14:29:54;3.03;;;1.13;;
3853;SDS011;1942;48.770;8.934;2022-07-10T14:32:46;3.42;;;0.73;;
3853;SDS011;1942;48.770;8.934;2022-07-10T14:35:32;2.33;;;0.80;;
3853;SDS011;1942;48.770;8.934;2022-07-10T14:38:19;1.88;;;0.85;;
3853;SDS011;1942;48.770;8.934;2022-07-10T14:41:19;1.27;;;0.77;;
3853;SDS011;1942;48.770;8.934;2022-07-10T14:44:12;2.50;;;0.90;;
3853;SDS011;1942;48.770;8.934;2022-07-10T14:47:05;3.35;;;1.00;;
3853;SDS011;1942;48.770;8.934;2022-07-10T14:49:42;1.70;;;0.70;;
3853;SDS011;1942;48.770;8.934;2022-07-10T14:52:10;2.97;;;1.17;;
3853;SDS011;1942;48.770;8.934;2022-07-10T14:54:38;1.95;;;1.00;;
3853;SDS011;1942;48.770;8.934;2022-07-10T14:57:05;3.28;;;0.80;;
3853;SDS011;1942;48.770;8.934;2022-07-10T14:59:34;1.50;;;0.90;;
3853;SDS011;1942;48.770;8.934;2022-07-10T15:02:09;1.45;;;0.65;;
3853;SDS011;1942;48.770;8.934;2022-07-10T15:04:44;1.45;;;0.70;;
3853;SDS011;1942;48.770;8.934;2022-07-10T15:07:15;1.83;;;0.80;;
3853;SDS011;1942;48.770;8.934;2022-07-10T15:09:56;1.33;;;0.80;;
3853;SDS011;1942;48.770;8.934;2022-07-10T15:12:33;0.85;;;0.70;;
3853;SDS011;1942;48.770;8.934;2022-07-10T15:15:03;2.75;;;0.85;;
3853;SDS011;1942;48.770;8.934;2022-07-10T15:17:36;1.85;;;0.90;;
3853;SDS011;1942;48.770;8.934;2022-07-10T15:20:08;1.83;;;1.02;;
3853;SDS011;1942;48.770;8.934;2022-07-10T15:22:45;2.05;;;1.10;;
3853;SDS011;1942;48.770;8.934;2022-07-10T15:25:16;1.70;;;0.85;;
3853;SDS011;1942;48.770;8.934;2022-07-10T15:27:46;1.98;;;0.63;;
3853;SDS011;1942;48.770;8.934;2022-07-10T15:30:14;1.73;;;0.90;;
3853;SDS011;1942;48.770;8.934;2022-07-10T15:32:41;2.55;;;0.95;;
3853;SDS011;1942;48.770;8.934;2022-07-10T15:35:08;2.28;;;1.40;;
3853;SDS011;1942;48.770;8.934;2022-07-10T15:37:35;1.63;;;0.90;;
3853;SDS011;1942;48.770;8.934;2022-07-10T15:40:04;1.75;;;1.00;;
3853;SDS011;1942;48.770;8.934;2022-07-10T15:42:32;2.70;;;0.77;;
3853;SDS011;1942;48.770;8.934;2022-07-10T15:44:59;1.42;;;0.95;;
3853;SDS011;1942;48.770;8.934;2022-07-10T15:47:26;2.30;;;0.90;;
3853;SDS011;1942;48.770;8.934;2022-07-10T15:49:53;1.17;;;0.82;;
3853;SDS011;1942;48.770;8.934;2022-07-10T15:52:20;2.40;;;0.90;;